sensor_id;sensor_type;location;lat;lon;timestamp;P1;durP1;ratioP1;P2;durP2;ratioP2
25731;SDS011;13585;50.864;4.406;2022-09-12T00:01:58;2.72;;;2.15;;
25731;SDS011;13585;50.864;4.406;2022-09-12T00:04:24;2.45;;;2.25;;
25731;SDS011;13585;50.864;4.406;2022-09-12T00:06:51;2.15;;;1.95;;
25731;SDS011;13585;50.864;4.406;2022-09-12T00:09:16;2.60;;;2.22;;
25731;SDS011;13585;50.864;4.406;2022-09-12T00:11:45;2.17;;;1.85;;
25731;SDS011;13585;50.864;4.406;2022-09-12T00:14:16;2.33;;;2.13;;
25731;SDS011;13585;50.864;4.406;2022-09-12T00:16:43;3.17;;;2.28;;
25731;SDS011;13585;50.864;4.406;2022-09-12T00:19:09;2.50;;;2.30;;
25731;SDS011;13585;50.864;4.406;2022-09-12T00:21:36;2.30;;;2.10;;
25731;SDS011;13585;50.864;4.406;2022-09-12T00:24:03;2.80;;;2.10;;
25731;SDS011;13585;50.864;4.406;2022-09-12T00:26:30;2.40;;;2.20;;
25731;SDS011;13585;50.864;4.406;2022-09-12T00:28:57;2.88;;;2.40;;
25731;SDS011;13585;50.864;4.406;2022-09-12T00:31:23;2.47;;;2.28;;
25731;SDS011;13585;50.864;4.406;2022-09-12T00:33:50;3.75;;;2.33;;
25731;SDS011;13585;50.864;4.406;2022-09-12T00:36:18;3.10;;;2.00;;
25731;SDS011;13585;50.864;4.406;2022-09-12T00:38:49;2.58;;;2.38;;
25731;SDS011;13585;50.864;4.406;2022-09-12T00:41:17;3.28;;;2.42;;
25731;SDS011;13585;50.864;4.406;2022-09-12T00:43:46;2.30;;;2.10;;
25731;SDS011;13585;50.864;4.406;2022-09-12T00:48:57;4.97;;;2.40;;
25731;SDS011;13585;50.864;4.406;2022-09-12T00:51:27;2.60;;;2.40;;
25731;SDS011;13585;50.864;4.406;2022-09-12T00:53:55;3.50;;;2.22;;
25731;SDS011;13585;50.864;4.406;2022-09-12T00:56:23;2.40;;;2.17;;
25731;SDS011;13585;50.864;4.406;2022-09-12T00:58:54;3.85;;;2.28;;
25731;SDS011;13585;50.864;4.406;2022-09-12T01:01:26;2.83;;;1.95;;
25731;SDS011;13585;50.864;4.406;2022-09-12T01:03:52;3.08;;;2.50;;
25731;SDS011;13585;50.864;4.406;2022-09-12T01:06:20;3.05;;;2.05;;
25731;SDS011;13585;50.864;4.406;2022-09-12T01:08:52;2.80;;;2.20;;
25731;SDS011;13585;50.864;4.406;2022-09-12T01:11:19;3.22;;;2.40;;
25731;SDS011;13585;50.864;4.406;2022-09-12T01:13:45;2.80;;;2.33;;
25731;SDS011;13585;50.864;4.406;2022-09-12T01:16:13;2.53;;;2.33;;
25731;SDS011;13585;50.864;4.406;2022-09-12T01:19:01;2.92;;;2.60;;
25731;SDS011;13585;50.864;4.406;2022-09-12T01:31:55;2.83;;;2.33;;
25731;SDS011;13585;50.864;4.406;2022-09-12T01:34:45;2.50;;;2.30;;
25731;SDS011;13585;50.864;4.406;2022-09-12T01:37:15;2.40;;;2.20;;
25731;SDS011;13585;50.864;4.406;2022-09-12T01:45:38;3.22;;;2.40;;
25731;SDS011;13585;50.864;4.406;2022-09-12T01:48:21;2.75;;;2.13;;
25731;SDS011;13585;50.864;4.406;2022-09-12T01:50:53;3.72;;;2.63;;
25731;SDS011;13585;50.864;4.406;2022-09-12T01:53:46;3.13;;;2.30;;
25731;SDS011;13585;50.864;4.406;2022-09-12T01:56:23;3.72;;;2.30;;
25731;SDS011;13585;50.864;4.406;2022-09-12T02:02:17;2.35;;;2.08;;
25731;SDS011;13585;50.864;4.406;2022-09-12T02:05:11;7.50;;;2.67;;
25731;SDS011;13585;50.864;4.406;2022-09-12T02:07:47;3.58;;;2.42;;
25731;SDS011;13585;50.864;4.406;2022-09-12T02:10:24;2.88;;;2.60;;
25731;SDS011;13585;50.864;4.406;2022-09-12T02:13:00;2.72;;;2.42;;
25731;SDS011;13585;50.864;4.406;2022-09-12T02:15:34;3.55;;;2.55;;
25731;SDS011;13585;50.864;4.406;2022-09-12T02:18:04;3.28;;;2.45;;
25731;SDS011;13585;50.864;4.406;2022-09-12T02:20:34;2.65;;;2.30;;
25731;SDS011;13585;50.864;4.406;2022-09-12T02:23:02;3.45;;;2.15;;
25731;SDS011;13585;50.864;4.406;2022-09-12T02:25:33;5.00;;;2.40;;
25731;SDS011;13585;50.864;4.406;2022-09-12T02:28:11;2.60;;;2.28;;
25731;SDS011;13585;50.864;4.406;2022-09-12T02:31:00;2.60;;;2.40;;
25731;SDS011;13585;50.864;4.406;2022-09-12T02:33:47;2.40;;;2.20;;
25731;SDS011;13585;50.864;4.406;2022-09-12T02:38:59;2.38;;;2.15;;
25731;SDS011;13585;50.864;4.406;2022-09-12T02:41:25;2.85;;;2.42;;
25731;SDS011;13585;50.864;4.406;2022-09-12T02:43:51;2.33;;;2.00;;
25731;SDS011;13585;50.864;4.406;2022-09-12T02:46:22;3.13;;;2.40;;
25731;SDS011;13585;50.864;4.406;2022-09-12T02:48:55;2.42;;;2.22;;
25731;SDS011;13585;50.864;4.406;2022-09-12T02:51:22;2.47;;;2.08;;
25731;SDS011;13585;50.864;4.406;2022-09-12T02:53:50;2.95;;;2.30;;
25731;SDS011;13585;50.864;4.406;2022-09-12T02:56:22;2.67;;;2.30;;
25731;SDS011;13585;50.864;4.406;2022-09-12T02:58:51;2.75;;;2.45;;
25731;SDS011;13585;50.864;4.406;2022-09-12T03:01:28;2.95;;;2.50;;
25731;SDS011;13585;50.864;4.406;2022-09-12T03:21:46;2.35;;;2.13;;
25731;SDS011;13585;50.864;4.406;2022-09-12T03:24:30;2.65;;;2.35;;
25731;SDS011;13585;50.864;4.406;2022-09-12T03:27:32;2.55;;;2.13;;
25731;SDS011;13585;50.864;4.406;2022-09-12T03:29:52;2.50;;;2.22;;
25731;SDS011;13585;50.864;4.406;2022-09-12T03:32:20;4.63;;;2.33;;
25731;SDS011;13585;50.864;4.406;2022-09-12T03:35:14;2.20;;;1.98;;
25731;SDS011;13585;50.864;4.406;2022-09-12T03:37:41;2.50;;;2.25;;
25731;SDS011;13585;50.864;4.406;2022-09-12T03:40:08;2.28;;;2.05;;
25731;SDS011;13585;50.864;4.406;2022-09-12T03:42:36;2.70;;;2.40;;
25731;SDS011;13585;50.864;4.406;2022-09-12T03:45:02;2.20;;;2.00;;
25731;SDS011;13585;50.864;4.406;2022-09-12T03:47:29;3.33;;;2.38;;
25731;SDS011;13585;50.864;4.406;2022-09-12T03:49:55;3.80;;;2.08;;
25731;SDS011;13585;50.864;4.406;2022-09-12T03:52:20;2.95;;;2.10;;
25731;SDS011;13585;50.864;4.406;2022-09-12T03:54:47;3.22;;;2.17;;
25731;SDS011;13585;50.864;4.406;2022-09-12T03:57:13;2.75;;;2.20;;
25731;SDS011;13585;50.864;4.406;2022-09-12T03:59:39;2.40;;;2.20;;
25731;SDS011;13585;50.864;4.406;2022-09-12T04:02:04;2.38;;;2.17;;
25731;SDS011;13585;50.864;4.406;2022-09-12T04:04:30;2.50;;;2.17;;
25731;SDS011;13585;50.864;4.406;2022-09-12T04:07:05;2.92;;;2.45;;
25731;SDS011;13585;50.864;4.406;2022-09-12T04:09:31;2.83;;;2.30;;
25731;SDS011;13585;50.864;4.406;2022-09-12T04:11:57;2.38;;;2.00;;
25731;SDS011;13585;50.864;4.406;2022-09-12T04:14:23;2.33;;;2.13;;
25731;SDS011;13585;50.864;4.406;2022-09-12T04:16:49;2.33;;;2.13;;
25731;SDS011;13585;50.864;4.406;2022-09-12T04:19:15;2.88;;;2.00;;
25731;SDS011;13585;50.864;4.406;2022-09-12T04:21:41;2.20;;;1.98;;
25731;SDS011;13585;50.864;4.406;2022-09-12T04:24:07;2.63;;;2.05;;
25731;SDS011;13585;50.864;4.406;2022-09-12T04:26:32;2.53;;;2.33;;
25731;SDS011;13585;50.864;4.406;2022-09-12T04:28:58;3.65;;;2.30;;
25731;SDS011;13585;50.864;4.406;2022-09-12T04:31:24;4.68;;;2.38;;
25731;SDS011;13585;50.864;4.406;2022-09-12T04:33:57;2.35;;;2.00;;
25731;SDS011;13585;50.864;4.406;2022-09-12T04:36:24;2.80;;;2.50;;
25731;SDS011;13585;50.864;4.406;2022-09-12T04:38:51;2.50;;;2.20;;
25731;SDS011;13585;50.864;4.406;2022-09-12T04:41:21;2.58;;;2.28;;
25731;SDS011;13585;50.864;4.406;2022-09-12T04:43:52;2.65;;;2.40;;
25731;SDS011;13585;50.864;4.406;2022-09-12T04:46:22;3.42;;;2.40;;
25731;SDS011;13585;50.864;4.406;2022-09-12T04:48:49;2.63;;;2.42;;
25731;SDS011;13585;50.864;4.406;2022-09-12T04:51:16;2.15;;;1.92;;
25731;SDS011;13585;50.864;4.406;2022-09-12T04:53:50;2.80;;;2.38;;
25731;SDS011;13585;50.864;4.406;2022-09-12T04:56:18;2.75;;;2.38;;
25731;SDS011;13585;50.864;4.406;2022-09-12T04:58:45;3.08;;;2.20;;
25731;SDS011;13585;50.864;4.406;2022-09-12T05:01:11;3.97;;;2.30;;
25731;SDS011;13585;50.864;4.406;2022-09-12T05:03:41;2.85;;;2.40;;
25731;SDS011;13585;50.864;4.406;2022-09-12T05:06:12;2.47;;;2.20;;
25731;SDS011;13585;50.864;4.406;2022-09-12T05:08:43;2.50;;;2.15;;
25731;SDS011;13585;50.864;4.406;2022-09-12T05:11:10;2.92;;;2.63;;
25731;SDS011;13585;50.864;4.406;2022-09-12T05:13:37;2.40;;;2.20;;
25731;SDS011;13585;50.864;4.406;2022-09-12T05:16:04;2.47;;;2.20;;
25731;SDS011;13585;50.864;4.406;2022-09-12T05:18:32;2.88;;;2.58;;
25731;SDS011;13585;50.864;4.406;2022-09-12T05:20:59;3.22;;;2.30;;
25731;SDS011;13585;50.864;4.406;2022-09-12T05:23:26;2.38;;;2.10;;
25731;SDS011;13585;50.864;4.406;2022-09-12T05:25:54;2.60;;;2.40;;
25731;SDS011;13585;50.864;4.406;2022-09-12T05:28:21;4.47;;;2.25;;
25731;SDS011;13585;50.864;4.406;2022-09-12T05:30:58;3.03;;;2.20;;
25731;SDS011;13585;50.864;4.406;2022-09-12T05:33:28;2.67;;;2.20;;
25731;SDS011;13585;50.864;4.406;2022-09-12T05:35:55;3.38;;;2.20;;
25731;SDS011;13585;50.864;4.406;2022-09-12T05:38:21;2.88;;;2.42;;
25731;SDS011;13585;50.864;4.406;2022-09-12T05:40:49;2.75;;;2.30;;
25731;SDS011;13585;50.864;4.406;2022-09-12T05:43:16;2.85;;;2.17;;
25731;SDS011;13585;50.864;4.406;2022-09-12T05:45:42;2.60;;;2.17;;
25731;SDS011;13585;50.864;4.406;2022-09-12T05:48:07;2.70;;;2.42;;
25731;SDS011;13585;50.864;4.406;2022-09-12T05:50:33;3.25;;;2.47;;
25731;SDS011;13585;50.864;4.406;2022-09-12T05:52:59;2.75;;;2.40;;
25731;SDS011;13585;50.864;4.406;2022-09-12T05:55:25;2.42;;;2.20;;
25731;SDS011;13585;50.864;4.406;2022-09-12T05:57:51;2.67;;;2.13;;
25731;SDS011;13585;50.864;4.406;2022-09-12T06:00:18;3.42;;;2.47;;
25731;SDS011;13585;50.864;4.406;2022-09-12T06:02:44;3.38;;;2.50;;
25731;SDS011;13585;50.864;4.406;2022-09-12T06:05:17;2.60;;;2.25;;
25731;SDS011;13585;50.864;4.406;2022-09-12T06:07:46;2.47;;;2.28;;
25731;SDS011;13585;50.864;4.406;2022-09-12T06:10:12;2.38;;;2.08;;
25731;SDS011;13585;50.864;4.406;2022-09-12T06:12:38;2.35;;;2.15;;
25731;SDS011;13585;50.864;4.406;2022-09-12T06:15:04;2.47;;;2.28;;
25731;SDS011;13585;50.864;4.406;2022-09-12T06:17:30;2.72;;;2.30;;
25731;SDS011;13585;50.864;4.406;2022-09-12T06:19:56;2.47;;;2.17;;
25731;SDS011;13585;50.864;4.406;2022-09-12T06:22:22;2.70;;;2.13;;
25731;SDS011;13585;50.864;4.406;2022-09-12T06:24:48;2.20;;;2.00;;
25731;SDS011;13585;50.864;4.406;2022-09-12T06:27:13;2.53;;;2.30;;
25731;SDS011;13585;50.864;4.406;2022-09-12T06:29:40;2.65;;;2.13;;
25731;SDS011;13585;50.864;4.406;2022-09-12T06:32:05;2.13;;;1.83;;
25731;SDS011;13585;50.864;4.406;2022-09-12T06:34:31;2.15;;;1.90;;
25731;SDS011;13585;50.864;4.406;2022-09-12T06:36:57;3.10;;;2.38;;
25731;SDS011;13585;50.864;4.406;2022-09-12T06:39:23;2.25;;;2.05;;
25731;SDS011;13585;50.864;4.406;2022-09-12T06:41:50;4.00;;;2.13;;
25731;SDS011;13585;50.864;4.406;2022-09-12T06:44:53;2.33;;;2.03;;
25731;SDS011;13585;50.864;4.406;2022-09-12T06:47:21;2.45;;;1.92;;
25731;SDS011;13585;50.864;4.406;2022-09-12T06:49:47;2.17;;;1.98;;
25731;SDS011;13585;50.864;4.406;2022-09-12T06:52:13;3.25;;;2.20;;
25731;SDS011;13585;50.864;4.406;2022-09-12T06:54:39;3.50;;;1.90;;
25731;SDS011;13585;50.864;4.406;2022-09-12T06:57:04;6.18;;;2.00;;
25731;SDS011;13585;50.864;4.406;2022-09-12T06:59:31;3.35;;;1.90;;
25731;SDS011;13585;50.864;4.406;2022-09-12T07:01:57;2.28;;;1.80;;
25731;SDS011;13585;50.864;4.406;2022-09-12T07:04:25;1.98;;;1.75;;
25731;SDS011;13585;50.864;4.406;2022-09-12T07:06:52;6.25;;;1.90;;
25731;SDS011;13585;50.864;4.406;2022-09-12T07:09:18;2.20;;;2.00;;
25731;SDS011;13585;50.864;4.406;2022-09-12T07:11:44;2.33;;;2.10;;
25731;SDS011;13585;50.864;4.406;2022-09-12T07:14:11;3.17;;;2.00;;
25731;SDS011;13585;50.864;4.406;2022-09-12T07:16:38;3.00;;;2.33;;
25731;SDS011;13585;50.864;4.406;2022-09-12T07:19:04;2.35;;;2.00;;
25731;SDS011;13585;50.864;4.406;2022-09-12T07:21:31;2.60;;;2.17;;
25731;SDS011;13585;50.864;4.406;2022-09-12T07:24:00;2.30;;;2.10;;
25731;SDS011;13585;50.864;4.406;2022-09-12T07:26:27;2.35;;;2.15;;
25731;SDS011;13585;50.864;4.406;2022-09-12T07:28:55;3.28;;;2.38;;
25731;SDS011;13585;50.864;4.406;2022-09-12T07:31:22;3.10;;;2.10;;
25731;SDS011;13585;50.864;4.406;2022-09-12T07:33:49;2.80;;;2.30;;
25731;SDS011;13585;50.864;4.406;2022-09-12T07:36:16;2.30;;;2.00;;
25731;SDS011;13585;50.864;4.406;2022-09-12T07:38:44;2.10;;;1.90;;
25731;SDS011;13585;50.864;4.406;2022-09-12T07:41:15;2.08;;;1.83;;
25731;SDS011;13585;50.864;4.406;2022-09-12T07:43:43;2.42;;;2.20;;
25731;SDS011;13585;50.864;4.406;2022-09-12T07:46:09;2.58;;;2.15;;
25731;SDS011;13585;50.864;4.406;2022-09-12T07:48:36;2.25;;;1.85;;
25731;SDS011;13585;50.864;4.406;2022-09-12T07:51:07;2.75;;;2.10;;
25731;SDS011;13585;50.864;4.406;2022-09-12T07:53:35;2.28;;;1.90;;
25731;SDS011;13585;50.864;4.406;2022-09-12T07:56:02;2.88;;;1.98;;
25731;SDS011;13585;50.864;4.406;2022-09-12T07:58:29;2.42;;;2.10;;
25731;SDS011;13585;50.864;4.406;2022-09-12T08:01:03;2.10;;;1.90;;
25731;SDS011;13585;50.864;4.406;2022-09-12T08:03:30;2.72;;;2.03;;
25731;SDS011;13585;50.864;4.406;2022-09-12T08:06:02;2.25;;;1.70;;
25731;SDS011;13585;50.864;4.406;2022-09-12T08:08:28;2.17;;;1.90;;
25731;SDS011;13585;50.864;4.406;2022-09-12T08:10:57;2.33;;;2.08;;
25731;SDS011;13585;50.864;4.406;2022-09-12T08:13:25;2.20;;;1.90;;
25731;SDS011;13585;50.864;4.406;2022-09-12T08:15:55;2.10;;;1.90;;
25731;SDS011;13585;50.864;4.406;2022-09-12T08:18:23;3.08;;;2.00;;
25731;SDS011;13585;50.864;4.406;2022-09-12T08:20:55;2.80;;;1.92;;
25731;SDS011;13585;50.864;4.406;2022-09-12T08:23:24;2.88;;;1.90;;
25731;SDS011;13585;50.864;4.406;2022-09-12T08:25:54;1.88;;;1.50;;
25731;SDS011;13585;50.864;4.406;2022-09-12T08:28:25;2.58;;;1.80;;
25731;SDS011;13585;50.864;4.406;2022-09-12T08:30:52;2.30;;;1.85;;
25731;SDS011;13585;50.864;4.406;2022-09-12T08:33:18;1.77;;;1.67;;
25731;SDS011;13585;50.864;4.406;2022-09-12T08:35:44;2.38;;;1.80;;
25731;SDS011;13585;50.864;4.406;2022-09-12T08:38:11;2.35;;;1.73;;
25731;SDS011;13585;50.864;4.406;2022-09-12T08:40:49;1.98;;;1.60;;
25731;SDS011;13585;50.864;4.406;2022-09-12T08:46:23;2.55;;;2.00;;
25731;SDS011;13585;50.864;4.406;2022-09-12T08:49:12;5.75;;;1.90;;
25731;SDS011;13585;50.864;4.406;2022-09-12T08:51:49;2.70;;;1.83;;
25731;SDS011;13585;50.864;4.406;2022-09-12T08:54:20;1.85;;;1.70;;
25731;SDS011;13585;50.864;4.406;2022-09-12T08:56:53;2.08;;;1.80;;
25731;SDS011;13585;50.864;4.406;2022-09-12T08:59:22;1.85;;;1.70;;
25731;SDS011;13585;50.864;4.406;2022-09-12T09:01:49;3.10;;;1.95;;
25731;SDS011;13585;50.864;4.406;2022-09-12T09:13:15;2.50;;;1.77;;
25731;SDS011;13585;50.864;4.406;2022-09-12T09:16:10;4.00;;;1.80;;
25731;SDS011;13585;50.864;4.406;2022-09-12T09:18:40;3.75;;;2.08;;
25731;SDS011;13585;50.864;4.406;2022-09-12T09:21:13;4.07;;;2.22;;
25731;SDS011;13585;50.864;4.406;2022-09-12T09:24:07;3.03;;;1.90;;
25731;SDS011;13585;50.864;4.406;2022-09-12T09:26:41;3.05;;;1.92;;
25731;SDS011;13585;50.864;4.406;2022-09-12T09:29:44;1.95;;;1.75;;
25731;SDS011;13585;50.864;4.406;2022-09-12T09:32:17;2.15;;;1.70;;
25731;SDS011;13585;50.864;4.406;2022-09-12T09:34:49;2.67;;;1.80;;
25731;SDS011;13585;50.864;4.406;2022-09-12T09:37:29;2.20;;;1.65;;
25731;SDS011;13585;50.864;4.406;2022-09-12T09:43:09;1.92;;;1.75;;
25731;SDS011;13585;50.864;4.406;2022-09-12T09:45:48;2.05;;;1.80;;
25731;SDS011;13585;50.864;4.406;2022-09-12T09:48:17;2.30;;;1.90;;
25731;SDS011;13585;50.864;4.406;2022-09-12T09:50:47;1.98;;;1.77;;
25731;SDS011;13585;50.864;4.406;2022-09-12T09:56:02;5.03;;;2.05;;
25731;SDS011;13585;50.864;4.406;2022-09-12T10:01:00;2.70;;;1.50;;
25731;SDS011;13585;50.864;4.406;2022-09-12T10:03:33;2.17;;;1.73;;
25731;SDS011;13585;50.864;4.406;2022-09-12T10:06:06;2.88;;;1.90;;
25731;SDS011;13585;50.864;4.406;2022-09-12T10:08:47;2.83;;;1.70;;
25731;SDS011;13585;50.864;4.406;2022-09-12T10:16:21;1.70;;;1.60;;
25731;SDS011;13585;50.864;4.406;2022-09-12T10:18:58;1.92;;;1.50;;
25731;SDS011;13585;50.864;4.406;2022-09-12T10:21:34;2.50;;;1.92;;
25731;SDS011;13585;50.864;4.406;2022-09-12T10:26:54;3.03;;;1.85;;
25731;SDS011;13585;50.864;4.406;2022-09-12T10:29:30;2.40;;;1.73;;
25731;SDS011;13585;50.864;4.406;2022-09-12T10:31:59;2.67;;;1.75;;
25731;SDS011;13585;50.864;4.406;2022-09-12T10:34:40;2.40;;;2.20;;
25731;SDS011;13585;50.864;4.406;2022-09-12T10:37:08;2.20;;;1.67;;
25731;SDS011;13585;50.864;4.406;2022-09-12T10:39:56;2.00;;;1.70;;
25731;SDS011;13585;50.864;4.406;2022-09-12T10:47:53;1.58;;;1.40;;
25731;SDS011;13585;50.864;4.406;2022-09-12T10:50:41;2.03;;;1.60;;
25731;SDS011;13585;50.864;4.406;2022-09-12T10:53:20;1.92;;;1.63;;
25731;SDS011;13585;50.864;4.406;2022-09-12T10:55:56;1.63;;;1.52;;
25731;SDS011;13585;50.864;4.406;2022-09-12T10:59:12;3.45;;;1.60;;
25731;SDS011;13585;50.864;4.406;2022-09-12T11:02:08;2.42;;;1.67;;
25731;SDS011;13585;50.864;4.406;2022-09-12T11:38:07;3.10;;;1.40;;
25731;SDS011;13585;50.864;4.406;2022-09-12T11:40:55;2.65;;;1.35;;
25731;SDS011;13585;50.864;4.406;2022-09-12T11:48:56;1.80;;;1.42;;
25731;SDS011;13585;50.864;4.406;2022-09-12T11:54:13;1.58;;;1.42;;
25731;SDS011;13585;50.864;4.406;2022-09-12T11:57:10;3.15;;;1.50;;
25731;SDS011;13585;50.864;4.406;2022-09-12T12:00:25;1.60;;;1.30;;
25731;SDS011;13585;50.864;4.406;2022-09-12T12:03:28;2.65;;;1.52;;
25731;SDS011;13585;50.864;4.406;2022-09-12T12:06:10;3.20;;;1.40;;
25731;SDS011;13585;50.864;4.406;2022-09-12T12:08:37;2.00;;;1.23;;
25731;SDS011;13585;50.864;4.406;2022-09-12T12:11:09;1.73;;;1.45;;
25731;SDS011;13585;50.864;4.406;2022-09-12T12:13:38;2.90;;;1.30;;
25731;SDS011;13585;50.864;4.406;2022-09-12T12:16:27;2.00;;;1.58;;
25731;SDS011;13585;50.864;4.406;2022-09-12T12:18:59;1.50;;;1.40;;
25731;SDS011;13585;50.864;4.406;2022-09-12T12:26:45;1.33;;;1.13;;
25731;SDS011;13585;50.864;4.406;2022-09-12T12:41:41;2.38;;;1.25;;
25731;SDS011;13585;50.864;4.406;2022-09-12T12:47:40;2.88;;;1.30;;
25731;SDS011;13585;50.864;4.406;2022-09-12T12:50:35;2.67;;;1.52;;
25731;SDS011;13585;50.864;4.406;2022-09-12T12:55:56;1.70;;;1.30;;
25731;SDS011;13585;50.864;4.406;2022-09-12T12:58:33;1.90;;;1.42;;
25731;SDS011;13585;50.864;4.406;2022-09-12T13:01:14;1.98;;;1.20;;
25731;SDS011;13585;50.864;4.406;2022-09-12T13:06:42;3.80;;;1.45;;
25731;SDS011;13585;50.864;4.406;2022-09-12T13:09:19;1.52;;;1.25;;
25731;SDS011;13585;50.864;4.406;2022-09-12T13:11:54;3.35;;;1.30;;
25731;SDS011;13585;50.864;4.406;2022-09-12T13:17:34;1.90;;;1.30;;
25731;SDS011;13585;50.864;4.406;2022-09-12T13:20:06;2.55;;;1.20;;
25731;SDS011;13585;50.864;4.406;2022-09-12T13:23:18;2.10;;;1.20;;
25731;SDS011;13585;50.864;4.406;2022-09-12T13:26:02;1.85;;;1.10;;
25731;SDS011;13585;50.864;4.406;2022-09-12T13:28:34;1.90;;;1.38;;
25731;SDS011;13585;50.864;4.406;2022-09-12T13:31:01;1.70;;;1.25;;
25731;SDS011;13585;50.864;4.406;2022-09-12T13:39:04;2.85;;;1.27;;
25731;SDS011;13585;50.864;4.406;2022-09-12T13:47:53;2.10;;;1.20;;
25731;SDS011;13585;50.864;4.406;2022-09-12T13:53:43;1.87;;;1.40;;
25731;SDS011;13585;50.864;4.406;2022-09-12T13:56:14;2.00;;;1.02;;
25731;SDS011;13585;50.864;4.406;2022-09-12T13:58:56;2.55;;;1.25;;
25731;SDS011;13585;50.864;4.406;2022-09-12T14:01:36;2.40;;;1.60;;
25731;SDS011;13585;50.864;4.406;2022-09-12T14:04:15;1.13;;;1.00;;
25731;SDS011;13585;50.864;4.406;2022-09-12T14:07:07;1.80;;;1.23;;
25731;SDS011;13585;50.864;4.406;2022-09-12T14:09:37;1.10;;;1.00;;
25731;SDS011;13585;50.864;4.406;2022-09-12T14:12:41;1.77;;;1.17;;
25731;SDS011;13585;50.864;4.406;2022-09-12T14:15:17;2.33;;;1.15;;
25731;SDS011;13585;50.864;4.406;2022-09-12T14:17:49;1.50;;;1.08;;
25731;SDS011;13585;50.864;4.406;2022-09-12T14:20:16;1.85;;;0.98;;
25731;SDS011;13585;50.864;4.406;2022-09-12T14:22:44;1.40;;;1.00;;
25731;SDS011;13585;50.864;4.406;2022-09-12T14:25:15;2.42;;;1.25;;
25731;SDS011;13585;50.864;4.406;2022-09-12T14:27:44;1.95;;;1.38;;
25731;SDS011;13585;50.864;4.406;2022-09-12T14:30:56;2.60;;;1.30;;
25731;SDS011;13585;50.864;4.406;2022-09-12T14:33:21;2.63;;;1.25;;
25731;SDS011;13585;50.864;4.406;2022-09-12T14:35:48;1.58;;;1.17;;
25731;SDS011;13585;50.864;4.406;2022-09-12T14:40:59;1.52;;;1.13;;
25731;SDS011;13585;50.864;4.406;2022-09-12T14:43:49;1.23;;;1.08;;
25731;SDS011;13585;50.864;4.406;2022-09-12T14:46:33;1.60;;;1.20;;
25731;SDS011;13585;50.864;4.406;2022-09-12T14:49:05;2.45;;;1.27;;
25731;SDS011;13585;50.864;4.406;2022-09-12T14:54:56;3.55;;;1.27;;
25731;SDS011;13585;50.864;4.406;2022-09-12T15:00:50;1.83;;;1.30;;
25731;SDS011;13585;50.864;4.406;2022-09-12T15:03:29;1.73;;;1.10;;
25731;SDS011;13585;50.864;4.406;2022-09-12T15:08:47;1.92;;;1.17;;
25731;SDS011;13585;50.864;4.406;2022-09-12T15:11:13;1.52;;;1.27;;
25731;SDS011;13585;50.864;4.406;2022-09-12T15:13:39;2.85;;;1.23;;
25731;SDS011;13585;50.864;4.406;2022-09-12T15:16:07;2.15;;;1.42;;
25731;SDS011;13585;50.864;4.406;2022-09-12T15:18:35;1.95;;;1.25;;
25731;SDS011;13585;50.864;4.406;2022-09-12T15:21:02;2.28;;;1.20;;
25731;SDS011;13585;50.864;4.406;2022-09-12T15:23:31;2.45;;;1.10;;
25731;SDS011;13585;50.864;4.406;2022-09-12T15:26:00;3.30;;;1.15;;
25731;SDS011;13585;50.864;4.406;2022-09-12T15:28:28;5.97;;;1.30;;
25731;SDS011;13585;50.864;4.406;2022-09-12T15:30:55;3.03;;;1.30;;
25731;SDS011;13585;50.864;4.406;2022-09-12T15:33:23;1.20;;;0.90;;
25731;SDS011;13585;50.864;4.406;2022-09-12T15:35:52;1.33;;;1.20;;
25731;SDS011;13585;50.864;4.406;2022-09-12T15:38:24;1.60;;;1.17;;
25731;SDS011;13585;50.864;4.406;2022-09-12T15:40:52;1.63;;;1.27;;
25731;SDS011;13585;50.864;4.406;2022-09-12T15:46:22;2.78;;;0.90;;
25731;SDS011;13585;50.864;4.406;2022-09-12T15:49:45;2.13;;;1.25;;
25731;SDS011;13585;50.864;4.406;2022-09-12T15:55:24;2.90;;;1.08;;
25731;SDS011;13585;50.864;4.406;2022-09-12T15:58:03;2.53;;;1.00;;
25731;SDS011;13585;50.864;4.406;2022-09-12T16:00:29;0.95;;;0.73;;
25731;SDS011;13585;50.864;4.406;2022-09-12T16:02:55;1.23;;;1.05;;
25731;SDS011;13585;50.864;4.406;2022-09-12T16:05:23;1.67;;;0.90;;
25731;SDS011;13585;50.864;4.406;2022-09-12T16:07:50;1.45;;;0.82;;
25731;SDS011;13585;50.864;4.406;2022-09-12T16:10:19;3.00;;;1.23;;
25731;SDS011;13585;50.864;4.406;2022-09-12T16:12:51;2.15;;;1.23;;
25731;SDS011;13585;50.864;4.406;2022-09-12T16:15:18;2.05;;;1.15;;
25731;SDS011;13585;50.864;4.406;2022-09-12T16:17:45;1.10;;;1.00;;
25731;SDS011;13585;50.864;4.406;2022-09-12T16:20:11;1.65;;;1.20;;
25731;SDS011;13585;50.864;4.406;2022-09-12T16:22:38;1.60;;;1.00;;
25731;SDS011;13585;50.864;4.406;2022-09-12T16:25:04;1.20;;;1.00;;
25731;SDS011;13585;50.864;4.406;2022-09-12T16:27:30;1.30;;;0.98;;
25731;SDS011;13585;50.864;4.406;2022-09-12T16:29:56;2.05;;;1.05;;
25731;SDS011;13585;50.864;4.406;2022-09-12T16:32:22;2.08;;;1.08;;
25731;SDS011;13585;50.864;4.406;2022-09-12T16:34:48;1.55;;;1.00;;
25731;SDS011;13585;50.864;4.406;2022-09-12T16:37:15;1.08;;;0.82;;
25731;SDS011;13585;50.864;4.406;2022-09-12T16:39:41;1.92;;;1.10;;
25731;SDS011;13585;50.864;4.406;2022-09-12T16:42:07;3.03;;;1.08;;
25731;SDS011;13585;50.864;4.406;2022-09-12T16:44:33;1.77;;;1.10;;
25731;SDS011;13585;50.864;4.406;2022-09-12T16:46:59;1.40;;;1.00;;
25731;SDS011;13585;50.864;4.406;2022-09-12T16:49:25;1.17;;;0.90;;
25731;SDS011;13585;50.864;4.406;2022-09-12T16:51:51;1.13;;;0.90;;
25731;SDS011;13585;50.864;4.406;2022-09-12T16:54:16;1.73;;;0.95;;
25731;SDS011;13585;50.864;4.406;2022-09-12T16:56:43;1.70;;;0.90;;
25731;SDS011;13585;50.864;4.406;2022-09-12T16:59:10;2.83;;;0.82;;
25731;SDS011;13585;50.864;4.406;2022-09-12T17:01:40;1.98;;;1.10;;
25731;SDS011;13585;50.864;4.406;2022-09-12T17:04:12;2.97;;;1.17;;
25731;SDS011;13585;50.864;4.406;2022-09-12T17:06:37;0.90;;;0.90;;
25731;SDS011;13585;50.864;4.406;2022-09-12T17:09:04;1.65;;;0.90;;
25731;SDS011;13585;50.864;4.406;2022-09-12T17:11:31;1.80;;;1.10;;
25731;SDS011;13585;50.864;4.406;2022-09-12T17:14:01;1.70;;;1.10;;
25731;SDS011;13585;50.864;4.406;2022-09-12T17:16:32;1.65;;;1.00;;
25731;SDS011;13585;50.864;4.406;2022-09-12T17:19:20;2.63;;;1.02;;
25731;SDS011;13585;50.864;4.406;2022-09-12T17:22:25;0.70;;;0.70;;
25731;SDS011;13585;50.864;4.406;2022-09-12T17:24:52;1.85;;;1.30;;
25731;SDS011;13585;50.864;4.406;2022-09-12T17:27:18;2.38;;;1.20;;
25731;SDS011;13585;50.864;4.406;2022-09-12T17:29:46;1.42;;;1.00;;
25731;SDS011;13585;50.864;4.406;2022-09-12T17:32:12;1.60;;;1.10;;
25731;SDS011;13585;50.864;4.406;2022-09-12T17:34:48;1.45;;;1.02;;
25731;SDS011;13585;50.864;4.406;2022-09-12T17:53:57;2.05;;;1.40;;
25731;SDS011;13585;50.864;4.406;2022-09-12T17:56:36;2.00;;;1.25;;
25731;SDS011;13585;50.864;4.406;2022-09-12T17:59:16;1.50;;;1.20;;
25731;SDS011;13585;50.864;4.406;2022-09-12T18:01:50;2.05;;;1.08;;
25731;SDS011;13585;50.864;4.406;2022-09-12T18:07:23;3.80;;;1.25;;
25731;SDS011;13585;50.864;4.406;2022-09-12T18:09:52;4.05;;;1.30;;
25731;SDS011;13585;50.864;4.406;2022-09-12T18:15:19;2.28;;;1.52;;
25731;SDS011;13585;50.864;4.406;2022-09-12T18:17:46;3.33;;;1.58;;
25731;SDS011;13585;50.864;4.406;2022-09-12T18:20:15;6.38;;;1.77;;
25731;SDS011;13585;50.864;4.406;2022-09-12T18:22:41;2.65;;;1.75;;
25731;SDS011;13585;50.864;4.406;2022-09-12T18:25:07;6.03;;;1.50;;
25731;SDS011;13585;50.864;4.406;2022-09-12T18:27:33;2.90;;;1.60;;
25731;SDS011;13585;50.864;4.406;2022-09-12T18:29:59;2.40;;;1.55;;
25731;SDS011;13585;50.864;4.406;2022-09-12T18:32:24;4.38;;;1.80;;
25731;SDS011;13585;50.864;4.406;2022-09-12T18:34:50;2.70;;;1.70;;
25731;SDS011;13585;50.864;4.406;2022-09-12T18:37:16;3.78;;;1.60;;
25731;SDS011;13585;50.864;4.406;2022-09-12T18:39:42;2.17;;;1.55;;